Butler, Oklahoma
Current Conditions -  °F | °C
As of 6:35 AM on Thursday 23 Oct 2014 (Local Time) from KCLK Reporting Station
Haze Haze  
Wind Chill: 59°   Ceiling: 4300
Heat Index: 59°   Visibility: 4mi
Dew Point: 57°   Wind: 5mph
Humidity: 94%   Direction: 180°S
Pressure: 30.1"   Gusts: NA
Location:  35.64°N, 99.19°W
Report Text: KCLK 231135Z AUTO 18004KT 4SM BR OVC043 15/14 A3010 RMK AO2
Loading
Personal Weather Stations






























Interactive Weather Map New forecast layout! Learn more

10-Day Weather Forecast

Advertisements
Track Severe Weather on mobile